createdAt,value
2018-04-16T00:00:25.758Z,38.53
2018-04-16T00:02:52.550Z,37.90
2018-04-16T00:05:19.291Z,46.47
2018-04-16T00:07:46.081Z,40.53
2018-04-16T00:10:12.830Z,38.13
2018-04-16T00:12:39.537Z,44.93
2018-04-16T00:15:06.243Z,39.60
2018-04-16T00:17:33.783Z,34.47
2018-04-16T00:20:00.544Z,36.73
2018-04-16T00:22:27.296Z,36.87
2018-04-16T00:24:54.848Z,37.63
2018-04-16T00:27:21.537Z,44.60
2018-04-16T00:29:48.230Z,37.60
2018-04-16T00:32:21.139Z,39.53
2018-04-16T00:34:54.706Z,38.83
2018-04-16T00:37:27.513Z,36.07
2018-04-16T00:40:00.239Z,39.40
2018-04-16T00:42:32.984Z,37.03
2018-04-16T00:45:05.822Z,40.23
2018-04-16T00:47:38.419Z,50.33
2018-04-16T00:50:11.226Z,60.23
2018-04-16T00:52:44.126Z,56.07
2018-04-16T00:55:16.970Z,58.63
2018-04-16T00:57:49.625Z,51.50
2018-04-16T01:00:23.202Z,47.83
2018-04-16T01:02:56.109Z,47.90
2018-04-16T01:05:29.659Z,45.70
2018-04-16T01:08:02.478Z,46.40
2018-04-16T01:10:35.263Z,41.37
2018-04-16T01:13:08.111Z,45.43
2018-04-16T01:15:40.958Z,47.53
2018-04-16T01:18:14.539Z,39.37
2018-04-16T01:20:47.377Z,39.63
2018-04-16T01:23:20.229Z,38.33
2018-04-16T01:25:52.989Z,39.80
2018-04-16T01:28:25.887Z,36.43
2018-04-16T01:30:58.653Z,52.57
2018-04-16T01:33:31.535Z,42.77
2018-04-16T01:36:04.429Z,34.93
2018-04-16T01:38:37.147Z,35.57
2018-04-16T01:41:09.815Z,43.47
2018-04-16T01:43:42.684Z,44.53
2018-04-16T01:46:15.352Z,38.47
2018-04-16T01:48:48.183Z,39.50
2018-04-16T01:51:20.964Z,37.17
2018-04-16T01:53:53.746Z,39.87
2018-04-16T01:56:27.087Z,37.07
2018-04-16T02:02:01.966Z,37.27
2018-04-16T02:04:34.806Z,38.70
2018-04-16T02:07:07.487Z,37.03
2018-04-16T02:09:40.332Z,37.37
2018-04-16T02:12:13.123Z,39.90
2018-04-16T02:14:45.970Z,39.77
2018-04-16T02:17:19.536Z,41.63
2018-04-16T02:19:52.296Z,40.27
2018-04-16T02:22:25.206Z,38.07
2018-04-16T02:24:58.719Z,44.00
2018-04-16T02:27:31.590Z,35.00
2018-04-16T02:30:04.310Z,39.93
2018-04-16T02:32:37.145Z,40.90
2018-04-16T02:35:09.921Z,45.63
2018-04-16T02:37:42.705Z,37.83
2018-04-16T02:40:15.462Z,42.93
2018-04-16T02:42:48.305Z,44.70
2018-04-16T02:45:21.149Z,40.43
2018-04-16T02:47:54.551Z,40.53
2018-04-16T02:50:27.413Z,38.43
2018-04-16T02:53:00.205Z,40.03
2018-04-16T02:55:32.990Z,42.30
2018-04-16T02:58:05.606Z,36.97
2018-04-16T03:00:38.437Z,43.27
2018-04-16T03:03:11.170Z,40.40
2018-04-16T03:05:43.873Z,41.47
2018-04-16T03:08:16.640Z,39.70
2018-04-16T03:10:49.454Z,40.67
2018-04-16T03:13:22.284Z,41.00
2018-04-16T03:15:55.205Z,43.43
2018-04-16T03:18:28.744Z,43.47
2018-04-16T03:21:01.560Z,40.77
2018-04-16T03:23:34.305Z,40.10
2018-04-16T03:26:06.920Z,39.00
2018-04-16T03:28:39.816Z,40.37
2018-04-16T03:31:12.702Z,43.47
2018-04-16T03:33:45.501Z,41.50
2018-04-16T03:36:18.348Z,43.53
2018-04-16T03:38:51.004Z,45.43
2018-04-16T03:41:23.854Z,45.67
2018-04-16T03:43:56.692Z,42.90
2018-04-16T03:46:29.470Z,42.93
2018-04-16T03:49:02.124Z,44.87
2018-04-16T03:51:29.637Z,42.90
2018-04-16T03:53:56.394Z,43.40
2018-04-16T03:56:24.008Z,42.77
2018-04-16T03:58:50.872Z,40.77
2018-04-16T04:01:17.652Z,41.47
2018-04-16T04:03:44.434Z,44.57
2018-04-16T04:06:12.104Z,42.63
2018-04-16T04:08:39.595Z,40.33
2018-04-16T04:11:06.297Z,45.23
2018-04-16T04:13:32.997Z,44.53
2018-04-16T04:15:59.747Z,44.00
2018-04-16T04:18:26.412Z,48.43
2018-04-16T04:20:53.165Z,48.33
2018-04-16T04:23:38.022Z,52.50
2018-04-16T04:26:22.882Z,45.60
2018-04-16T04:31:53.685Z,46.97
2018-04-16T04:34:21.779Z,47.67
2018-04-16T04:36:48.308Z,52.37
2018-04-16T04:39:15.559Z,55.80
2018-04-16T04:41:42.809Z,51.43
2018-04-16T04:44:09.352Z,50.47
2018-04-16T04:46:35.873Z,49.37
2018-04-16T04:49:02.423Z,50.13
2018-04-16T04:51:28.961Z,49.43
2018-04-16T04:53:55.473Z,51.20
2018-04-16T04:56:21.954Z,48.57
2018-04-16T04:58:49.213Z,44.00
2018-04-16T05:01:16.493Z,47.07
2018-04-16T05:03:43.078Z,43.20
2018-04-16T05:06:09.642Z,41.27
2018-04-16T05:08:36.929Z,41.30
2018-04-16T05:11:03.421Z,49.07
2018-04-16T05:13:29.909Z,47.77
2018-04-16T05:15:56.420Z,42.53
2018-04-16T05:18:23.686Z,52.47
2018-04-16T05:20:50.183Z,46.97
2018-04-16T05:23:16.785Z,48.60
2018-04-16T05:25:43.334Z,47.27
2018-04-16T05:28:09.868Z,44.63
2018-04-16T05:30:38.013Z,46.03
2018-04-16T05:33:05.359Z,43.57
2018-04-16T05:35:32.185Z,44.20
2018-04-16T05:37:58.718Z,41.20
2018-04-16T05:40:25.237Z,45.00
2018-04-16T05:42:51.769Z,43.63
2018-04-16T05:45:18.378Z,41.30
2018-04-16T05:47:44.860Z,39.40
2018-04-16T05:50:11.389Z,39.30
2018-04-16T05:52:37.989Z,40.50
2018-04-16T05:55:05.231Z,38.67
2018-04-16T05:57:31.747Z,39.27
2018-04-16T05:59:58.326Z,39.73
2018-04-16T06:02:25.580Z,38.07
2018-04-16T06:04:52.815Z,35.40
2018-04-16T06:07:19.342Z,37.43
2018-04-16T06:09:45.849Z,34.53
2018-04-16T06:12:12.382Z,34.13
2018-04-16T06:14:38.924Z,34.63
2018-04-16T06:17:05.463Z,34.30
2018-04-16T06:19:32.777Z,34.97
2018-04-16T06:21:59.324Z,36.53
2018-04-16T06:24:25.824Z,37.13
2018-04-16T06:26:52.302Z,34.97
2018-04-16T06:29:18.817Z,31.73
2018-04-16T06:31:45.349Z,32.40
2018-04-16T06:34:11.857Z,31.87
2018-04-16T06:36:38.360Z,31.30
2018-04-16T06:39:05.643Z,31.50
2018-04-16T06:41:32.135Z,33.27
2018-04-16T06:43:58.631Z,31.50
2018-04-16T06:46:25.130Z,33.60
2018-04-16T06:48:52.423Z,29.73
2018-04-16T06:51:19.021Z,28.17
2018-04-16T06:53:45.512Z,33.00
2018-04-16T06:56:12.037Z,31.27
2018-04-16T06:58:38.554Z,33.60
2018-04-16T07:01:05.799Z,29.20
2018-04-16T07:03:33.042Z,30.60
2018-04-16T07:05:59.598Z,30.50
2018-04-16T07:08:26.868Z,29.17
2018-04-16T07:10:54.121Z,31.97
2018-04-16T07:13:21.387Z,29.80
2018-04-16T07:15:48.617Z,29.87
2018-04-16T07:18:15.908Z,29.50
2018-04-16T07:20:44.097Z,30.17
2018-04-16T07:23:10.582Z,27.33
2018-04-16T07:25:37.093Z,26.97
2018-04-16T07:28:03.640Z,27.80
2018-04-16T07:30:30.157Z,26.27
2018-04-16T07:32:56.662Z,27.10
2018-04-16T07:35:23.889Z,28.50
2018-04-16T07:37:50.377Z,27.30
2018-04-16T07:40:16.927Z,25.77
2018-04-16T07:42:43.441Z,28.70
2018-04-16T07:45:10.767Z,29.73
2018-04-16T07:47:37.264Z,26.30
2018-04-16T07:50:03.788Z,25.67
2018-04-16T07:52:30.299Z,28.27
2018-04-16T07:54:56.779Z,28.67
2018-04-16T07:57:23.293Z,26.57
2018-04-16T07:59:50.524Z,27.33
2018-04-16T08:02:17.051Z,27.77
2018-04-16T08:04:43.577Z,29.27
2018-04-16T08:07:10.111Z,29.03
2018-04-16T08:09:36.621Z,29.17
2018-04-16T08:12:03.212Z,27.50
2018-04-16T08:14:29.708Z,28.17
2018-04-16T08:16:56.233Z,29.03
2018-04-16T08:19:23.553Z,28.67
2018-04-16T08:21:51.704Z,29.67
2018-04-16T08:24:19.839Z,24.90
2018-04-16T08:26:48.001Z,23.83
2018-04-16T08:29:16.145Z,31.20
2018-04-16T08:31:44.333Z,24.30
2018-04-16T08:34:12.499Z,23.17
2018-04-16T08:36:40.664Z,25.13
2018-04-16T08:39:08.814Z,26.23
2018-04-16T08:41:36.996Z,28.87
2018-04-16T08:44:05.328Z,24.23
2018-04-16T08:46:33.501Z,23.60
2018-04-16T08:49:01.683Z,23.00
2018-04-16T08:51:29.857Z,24.83
2018-04-16T08:53:58.014Z,25.03
2018-04-16T08:56:26.209Z,30.13
2018-04-16T08:58:54.337Z,26.40
2018-04-16T09:01:22.494Z,27.83
2018-04-16T09:03:50.652Z,25.23
2018-04-16T09:06:18.783Z,26.40
2018-04-16T09:08:46.976Z,26.10
2018-04-16T09:11:15.247Z,26.57
2018-04-16T09:13:43.486Z,26.13
2018-04-16T09:16:11.672Z,26.37
2018-04-16T09:18:39.882Z,25.27
2018-04-16T09:21:08.048Z,33.03
2018-04-16T09:23:36.175Z,25.97
2018-04-16T09:26:04.546Z,26.67
2018-04-16T09:28:32.696Z,25.87
2018-04-16T09:31:00.853Z,23.87
2018-04-16T09:33:29.006Z,24.73
2018-04-16T09:35:57.136Z,23.73
2018-04-16T09:38:25.324Z,21.70
2018-04-16T09:40:53.528Z,24.37
2018-04-16T09:43:21.671Z,24.67
2018-04-16T09:45:49.837Z,26.33
2018-04-16T09:48:17.997Z,27.17
2018-04-16T09:50:46.183Z,25.37
2018-04-16T09:53:14.371Z,28.37
2018-04-16T09:55:42.591Z,29.40
2018-04-16T09:58:10.739Z,27.83
2018-04-16T10:00:44.897Z,24.30
2018-04-16T10:03:17.122Z,24.53
2018-04-16T10:05:45.364Z,26.73
2018-04-16T10:08:13.523Z,26.73
2018-04-16T10:10:41.659Z,25.17
2018-04-16T10:13:09.893Z,24.43
2018-04-16T10:15:38.058Z,27.90
2018-04-16T10:18:06.273Z,26.43
2018-04-16T10:20:34.405Z,31.23
2018-04-16T10:23:02.560Z,24.43
2018-04-16T10:25:30.739Z,27.83
2018-04-16T10:27:58.903Z,25.20
2018-04-16T10:30:27.058Z,24.60
2018-04-16T10:32:55.208Z,26.37
2018-04-16T10:35:23.384Z,27.70
2018-04-16T10:37:51.516Z,23.70
2018-04-16T10:40:19.680Z,29.67
2018-04-16T10:42:47.841Z,26.33
2018-04-16T10:45:16.007Z,22.57
2018-04-16T10:47:44.134Z,22.33
2018-04-16T10:50:12.316Z,30.40
2018-04-16T10:52:40.558Z,24.93
2018-04-16T10:55:08.711Z,20.80
2018-04-16T10:57:36.956Z,22.80
2018-04-16T11:00:05.180Z,23.27
2018-04-16T11:02:32.424Z,24.30
2018-04-16T11:04:59.060Z,24.87
2018-04-16T11:07:25.562Z,27.37
2018-04-16T11:09:52.063Z,31.43
2018-04-16T11:12:19.320Z,26.53
2018-04-16T11:14:46.537Z,26.43
2018-04-16T11:17:13.043Z,30.53
2018-04-16T11:19:39.547Z,24.67
2018-04-16T11:22:06.821Z,30.33
2018-04-16T11:24:34.091Z,23.43
2018-04-16T11:27:00.622Z,24.90
2018-04-16T11:29:27.193Z,22.50
2018-04-16T11:31:53.672Z,25.00
2018-04-16T11:34:20.208Z,27.90
2018-04-16T11:36:46.688Z,23.93
2018-04-16T11:39:13.219Z,25.87
2018-04-16T11:41:39.712Z,26.60
2018-04-16T11:44:06.245Z,26.97
2018-04-16T11:46:32.719Z,29.30
2018-04-16T11:48:59.974Z,20.20
2018-04-16T11:51:27.277Z,30.27
2018-04-16T11:53:53.796Z,23.23
2018-04-16T11:56:20.313Z,25.43
2018-04-16T11:58:47.585Z,30.50
2018-04-16T12:01:14.081Z,25.43
2018-04-16T12:03:40.631Z,32.63
2018-04-16T12:06:07.132Z,32.23
2018-04-16T12:08:33.646Z,31.60
2018-04-16T12:11:00.223Z,27.83
2018-04-16T12:13:26.729Z,23.90
2018-04-16T12:15:53.208Z,26.77
2018-04-16T12:18:19.777Z,30.60
2018-04-16T12:20:46.993Z,25.23
2018-04-16T12:23:13.501Z,28.60
2018-04-16T12:25:40.029Z,30.30
2018-04-16T12:28:06.542Z,33.73
2018-04-16T12:30:33.781Z,25.60
2018-04-16T12:33:00.370Z,28.23
2018-04-16T12:35:26.906Z,36.97
2018-04-16T12:37:53.447Z,31.60
2018-04-16T12:40:19.961Z,30.97
2018-04-16T12:42:47.225Z,25.60
2018-04-16T12:45:14.455Z,31.50
2018-04-16T12:47:41.004Z,26.23
2018-04-16T12:50:07.481Z,31.20
2018-04-16T12:52:33.997Z,38.63
2018-04-16T12:55:01.291Z,29.33
2018-04-16T12:57:27.820Z,28.90
2018-04-16T12:59:54.700Z,36.23
2018-04-16T13:02:21.195Z,31.23
2018-04-16T13:04:47.692Z,28.37
2018-04-16T13:07:14.224Z,29.93
2018-04-16T13:09:40.751Z,45.53
2018-04-16T13:12:07.274Z,29.83
2018-04-16T13:14:33.804Z,37.90
2018-04-16T13:17:00.422Z,26.73
2018-04-16T13:19:27.666Z,28.53
2018-04-16T13:21:54.930Z,35.07
2018-04-16T13:24:22.187Z,32.47
2018-04-16T13:26:49.448Z,37.83
2018-04-16T13:29:15.984Z,28.00
2018-04-16T13:31:43.265Z,33.10
2018-04-16T13:34:09.776Z,34.00
2018-04-16T13:36:37.008Z,33.20
2018-04-16T13:39:03.649Z,31.33
2018-04-16T13:41:30.152Z,30.53
2018-04-16T13:43:56.662Z,26.03
2018-04-16T13:46:23.912Z,25.67
2018-04-16T13:48:51.154Z,31.07
2018-04-16T13:51:17.691Z,31.13
2018-04-16T13:53:44.310Z,33.33
2018-04-16T13:56:10.842Z,34.63
2018-04-16T13:58:37.360Z,32.20
2018-04-16T14:01:03.885Z,25.77
2018-04-16T14:03:30.418Z,26.57
2018-04-16T14:05:56.927Z,29.07
2018-04-16T14:08:24.347Z,28.53
2018-04-16T14:10:50.843Z,25.00
2018-04-16T14:13:18.080Z,27.93
2018-04-16T14:15:44.569Z,26.40
2018-04-16T14:18:11.079Z,26.73
2018-04-16T14:20:38.309Z,34.47
2018-04-16T14:23:04.832Z,22.30
2018-04-16T14:25:31.305Z,36.23
2018-04-16T14:27:59.042Z,26.77
2018-04-16T14:30:25.581Z,28.23
2018-04-16T14:32:52.119Z,32.27
2018-04-16T14:35:18.629Z,25.90
2018-04-16T14:37:45.175Z,23.83
2018-04-16T14:40:11.678Z,34.13
2018-04-16T14:42:38.944Z,27.30
2018-04-16T14:45:05.476Z,23.60
2018-04-16T14:47:32.805Z,30.03
2018-04-16T14:49:59.312Z,32.40
2018-04-16T14:52:25.833Z,24.27
2018-04-16T14:54:52.376Z,31.30
2018-04-16T14:57:18.921Z,31.23
2018-04-16T14:59:45.439Z,24.00
2018-04-16T15:02:11.956Z,38.57
2018-04-16T15:04:39.259Z,25.77
2018-04-16T15:07:05.781Z,28.13
2018-04-16T15:09:32.331Z,37.90
2018-04-16T15:11:58.816Z,34.50
2018-04-16T15:14:25.354Z,35.40
2018-04-16T15:16:51.864Z,40.90
2018-04-16T15:19:18.365Z,31.97
2018-04-16T15:21:44.904Z,43.47
2018-04-16T15:24:11.423Z,37.60
2018-04-16T15:26:38.678Z,42.60
2018-04-16T15:29:05.953Z,34.57
2018-04-16T15:31:33.199Z,35.97
2018-04-16T15:34:00.427Z,35.37
2018-04-16T15:36:26.980Z,32.50
2018-04-16T15:38:55.102Z,33.00
2018-04-16T15:41:21.607Z,31.87
2018-04-16T15:43:49.597Z,38.83
2018-04-16T15:46:16.107Z,44.37
2018-04-16T15:48:43.354Z,46.17
2018-04-16T15:51:09.898Z,48.53
2018-04-16T15:53:36.425Z,42.40
2018-04-16T15:56:02.923Z,50.87
2018-04-16T15:58:29.482Z,41.43
2018-04-16T16:00:55.971Z,38.40
2018-04-16T16:03:24.156Z,40.10
2018-04-16T16:05:52.395Z,39.83
2018-04-16T16:08:20.541Z,30.50
2018-04-16T16:10:48.765Z,39.77
2018-04-16T16:13:15.321Z,42.90
2018-04-16T16:15:42.651Z,39.17
2018-04-16T16:18:10.826Z,35.50
2018-04-16T16:20:39.014Z,34.67
2018-04-16T16:23:07.200Z,32.07
2018-04-16T16:25:35.359Z,36.17
2018-04-16T16:28:03.590Z,31.10
2018-04-16T16:30:32.100Z,28.77
2018-04-16T16:33:00.250Z,33.67
2018-04-16T16:35:27.568Z,35.27
2018-04-16T16:37:55.715Z,40.43
2018-04-16T16:40:23.898Z,35.97
2018-04-16T16:42:52.096Z,31.97
2018-04-16T16:45:20.298Z,37.80
2018-04-16T16:47:47.209Z,42.30
2018-04-16T16:50:15.441Z,51.00
2018-04-16T16:52:43.584Z,39.23
2018-04-16T16:55:12.629Z,32.10
2018-04-16T16:57:40.782Z,36.93
2018-04-16T17:00:08.948Z,33.77
2018-04-16T17:02:37.137Z,36.23
2018-04-16T17:05:05.627Z,33.17
2018-04-16T17:07:33.850Z,38.23
2018-04-16T17:10:02.038Z,26.87
2018-04-16T17:12:30.208Z,32.90
2018-04-16T17:14:58.357Z,26.63
2018-04-16T17:17:26.539Z,38.53
2018-04-16T17:19:54.747Z,33.23
2018-04-16T17:22:22.900Z,31.00
2018-04-16T17:24:51.093Z,30.47
2018-04-16T17:27:19.268Z,23.07
2018-04-16T17:29:47.449Z,23.70
2018-04-16T17:32:15.581Z,30.50
2018-04-16T17:34:43.764Z,31.37
2018-04-16T17:37:11.969Z,33.87
2018-04-16T17:39:40.148Z,23.43
2018-04-16T17:42:08.355Z,25.87
2018-04-16T17:44:36.520Z,29.57
2018-04-16T17:47:04.667Z,28.93
2018-04-16T17:49:32.877Z,26.83
2018-04-16T17:52:03.061Z,31.90
2018-04-16T17:54:31.285Z,37.10
2018-04-16T17:56:59.446Z,39.37
2018-04-16T17:59:27.651Z,30.57
2018-04-16T18:01:55.855Z,32.77
2018-04-16T18:04:26.101Z,34.80
2018-04-16T18:06:54.291Z,37.80
2018-04-16T18:09:22.448Z,32.63
2018-04-16T18:11:51.125Z,29.83
2018-04-16T18:14:19.316Z,45.37
2018-04-16T18:16:47.447Z,29.67
2018-04-16T18:19:15.622Z,33.33
2018-04-16T18:21:43.803Z,38.33
2018-04-16T18:24:11.955Z,37.70
2018-04-16T18:26:40.126Z,34.00
2018-04-16T18:29:08.306Z,28.83
2018-04-16T18:31:36.442Z,35.13
2018-04-16T18:34:04.617Z,28.43
2018-04-16T18:36:32.747Z,31.83
2018-04-16T18:39:00.953Z,36.50
2018-04-16T18:41:29.163Z,27.27
2018-04-16T18:43:57.318Z,28.63
2018-04-16T18:46:25.469Z,29.50
2018-04-16T18:48:53.634Z,35.00
2018-04-16T18:51:21.793Z,31.10
2018-04-16T18:53:49.951Z,22.33
2018-04-16T18:56:18.160Z,31.20
2018-04-16T18:58:46.295Z,28.53
2018-04-16T19:01:14.550Z,29.47
2018-04-16T19:03:42.679Z,41.23
2018-04-16T19:06:10.883Z,38.97
2018-04-16T19:08:39.048Z,29.70
2018-04-16T19:11:07.279Z,39.53
2018-04-16T19:13:35.444Z,30.73
2018-04-16T19:16:03.126Z,26.20
2018-04-16T19:18:31.308Z,31.33
2018-04-16T19:21:04.785Z,32.17
2018-04-16T19:23:32.089Z,24.93
2018-04-16T19:25:59.388Z,21.53
2018-04-16T19:28:25.890Z,22.00
2018-04-16T19:30:53.218Z,20.63
2018-04-16T19:33:25.728Z,23.33
2018-04-16T19:35:53.052Z,19.07
2018-04-16T19:38:19.555Z,13.73
2018-04-16T19:40:46.082Z,14.83
2018-04-16T19:43:12.807Z,17.20
2018-04-16T19:45:40.147Z,18.10
2018-04-16T19:48:06.717Z,19.97
2018-04-16T19:50:34.029Z,17.80
2018-04-16T19:53:00.567Z,15.63
2018-04-16T19:55:27.119Z,19.70
2018-04-16T19:57:59.629Z,17.00
2018-04-16T20:00:27.276Z,17.70
2018-04-16T20:02:59.874Z,18.53
2018-04-16T20:05:27.171Z,24.00
2018-04-16T20:07:53.764Z,19.80
2018-04-16T20:10:21.802Z,21.87
2018-04-16T20:12:48.296Z,15.47
2018-04-16T20:15:15.550Z,15.50
2018-04-16T20:17:42.848Z,18.30
2018-04-16T20:20:09.381Z,16.30
2018-04-16T20:22:35.929Z,15.87
2018-04-16T20:25:02.569Z,21.93
2018-04-16T20:27:29.094Z,23.03
2018-04-16T20:29:55.601Z,14.73
2018-04-16T20:32:22.902Z,14.87
2018-04-16T20:34:49.451Z,15.20
2018-04-16T20:37:15.944Z,17.23
2018-04-16T20:39:43.215Z,18.67
2018-04-16T20:42:09.797Z,15.03
2018-04-16T20:44:36.353Z,23.70
2018-04-16T20:47:02.863Z,20.60
2018-04-16T20:49:29.369Z,18.63
2018-04-16T20:51:55.884Z,12.77
2018-04-16T20:54:23.152Z,13.43
2018-04-16T20:56:50.453Z,14.97
2018-04-16T20:59:16.951Z,14.00
2018-04-16T21:01:44.212Z,22.13
2018-04-16T21:04:10.721Z,17.17
2018-04-16T21:06:37.378Z,12.53
2018-04-16T21:11:37.773Z,14.90
2018-04-16T21:14:04.268Z,15.83
2018-04-16T21:16:31.556Z,20.50
2018-04-16T21:18:58.045Z,14.03
2018-04-16T21:21:24.586Z,10.50
2018-04-16T21:23:51.060Z,16.83
2018-04-16T21:26:17.572Z,16.50
2018-04-16T21:28:44.123Z,12.27
2018-04-16T21:31:11.421Z,13.70
2018-04-16T21:33:37.909Z,14.43
2018-04-16T21:36:05.185Z,11.93
2018-04-16T21:38:31.719Z,15.60
2018-04-16T21:40:59.016Z,13.93
2018-04-16T21:43:25.502Z,15.00
2018-04-16T21:45:52.784Z,13.63
2018-04-16T21:48:19.296Z,11.30
2018-04-16T21:50:46.569Z,10.37
2018-04-16T21:53:13.151Z,8.80
2018-04-16T21:55:39.687Z,9.50
2018-04-16T21:58:06.197Z,13.60
2018-04-16T22:00:32.854Z,12.43
2018-04-16T22:02:59.330Z,14.07
2018-04-16T22:05:25.938Z,10.70
2018-04-16T22:07:52.468Z,15.40
2018-04-16T22:10:18.981Z,10.03
2018-04-16T22:12:46.333Z,10.43
2018-04-16T22:15:13.612Z,8.10
2018-04-16T22:17:40.131Z,10.83
2018-04-16T22:20:07.363Z,10.57
2018-04-16T22:22:34.096Z,11.07
2018-04-16T22:25:00.656Z,10.47
2018-04-16T22:27:27.199Z,9.00
2018-04-16T22:29:53.798Z,10.00
2018-04-16T22:32:20.274Z,15.57
2018-04-16T22:34:46.826Z,9.43
2018-04-16T22:37:14.089Z,14.90
2018-04-16T22:39:41.428Z,12.43
2018-04-16T22:42:07.917Z,10.17
2018-04-16T22:44:34.425Z,13.40
2018-04-16T22:47:01.653Z,10.70
2018-04-16T22:49:28.169Z,11.57
2018-04-16T22:51:54.737Z,11.43
2018-04-16T22:54:21.300Z,10.50
2018-04-16T22:56:48.517Z,21.20
2018-04-16T22:59:15.056Z,7.13
2018-04-16T23:01:41.552Z,14.50
2018-04-16T23:04:08.036Z,8.43
2018-04-16T23:06:34.557Z,14.13
2018-04-16T23:09:01.058Z,9.57
2018-04-16T23:11:28.282Z,10.50
2018-04-16T23:13:54.810Z,13.43
2018-04-16T23:16:21.280Z,10.77
2018-04-16T23:18:48.538Z,7.63
2018-04-16T23:21:15.812Z,11.43
2018-04-16T23:23:42.300Z,13.17
2018-04-16T23:26:08.791Z,12.90
2018-04-16T23:28:35.302Z,10.63
2018-04-16T23:31:02.519Z,11.23
2018-04-16T23:33:28.997Z,12.17
2018-04-16T23:35:56.245Z,9.20
2018-04-16T23:38:22.738Z,7.67
2018-04-16T23:40:49.210Z,11.00
2018-04-16T23:43:15.725Z,7.03
2018-04-16T23:45:42.237Z,13.43
2018-04-16T23:48:08.731Z,10.70
2018-04-16T23:50:35.277Z,10.67
2018-04-16T23:53:01.799Z,9.30
2018-04-16T23:55:28.296Z,11.60
2018-04-16T23:57:54.829Z,13.93
